Weather History for Glendive, MT

Change the Weather History Date:

Tuesday, March 12, 2013

  Actual Average Record
Temperature  
Mean Temperature 24 °F -  
Max Temperature 33 °F 34 °F 75 °F (2007)
Min Temperature 14 °F 15 °F -5 °F (2009)
Degree Days  
Heating Degree Days 42    
Moisture  
Dew Point 13 °F    
Average Humidity 64    
Maximum Humidity 93    
Minimum Humidity 41    
Precipitation  
Precipitation 0.00 in - - ()
Sea Level Pressure  
Sea Level Pressure 30.25 in    
Wind  
Wind Speed 14 mph (NNW)    
Max Wind Speed 24 mph    
Max Gust Speed 31 mph    
Visibility 10 miles    
Events      
Averages and records for this station are not official NWS values.
T = Trace of Precipitation, MM = Missing Value Source: NWS Daily Summary

Daily Weather History Graph

Daily Weather History Graph

Search for Another Location

Airport:

Trip Planner

Search our weather history database for the weather conditions in past years. The results will help you decide how hot, cold, wet, or windy it might be!

Date:

Astronomy

Mar. 12, 2013 Rise Set
Actual Time 7:17 AM MDT 7:01 PM MDT
Civil Twilight 6:47 AM MDT 7:31 PM MDT
Nautical Twilight 6:11 AM MDT 8:06 PM MDT
Astronomical Twilight 5:35 AM MDT 8:43 PM MDT
Moon 7:19 AM MDT (3/12) 8:27 PM MDT (3/12)
Length of Visible Light 12h 44m
Length of Day
11h 43m
New Moon, 1% of the Moon is Illuminated
Mar 12
New Moon
Mar 19
First Quarter
Mar 27
Full
Apr 2
Last Quarter
Apr 10
New

Hourly Weather History & Observations

Time (MDT) Temp. Windchill Dew Point Humidity Pressure Visibility Wind Dir Wind Speed Gust Speed Precip Events Conditions
12:15 AM 19.4 °F 3.6 °F 12.2 °F 74% 30.22 in 10.0 mi NW 19.6 mph 27.6 mph N/A   Overcast
12:35 AM 19.4 °F 2.8 °F 12.2 °F 74% 30.23 in 10.0 mi NW 21.9 mph 26.5 mph N/A   Overcast
12:55 AM 19.4 °F 2.8 °F 12.2 °F 74% 30.23 in 10.0 mi NW 21.9 mph 27.6 mph N/A   Overcast
1:15 AM 19.4 °F 2.1 °F 12.2 °F 74% 30.23 in 10.0 mi WNW 24.2 mph 31.1 mph N/A   Overcast
1:35 AM 19.4 °F 3.2 °F 12.2 °F 74% 30.23 in 10.0 mi NW 20.7 mph 28.8 mph N/A   Overcast
1:55 AM 19.4 °F 3.6 °F 10.4 °F 68% 30.25 in 10.0 mi WNW 19.6 mph 31.1 mph N/A   Overcast
2:35 AM 19.4 °F 4.5 °F 10.4 °F 68% 30.27 in 10.0 mi NW 17.3 mph 28.8 mph N/A   Overcast
2:55 AM 17.6 °F 0.9 °F 10.4 °F 73% 30.26 in 10.0 mi WNW 20.7 mph 24.2 mph N/A   Scattered Clouds
3:15 AM 17.6 °F 1.7 °F 10.4 °F 73% 30.26 in 10.0 mi NW 18.4 mph 23.0 mph N/A   Clear
3:35 AM 17.6 °F 1.7 °F 10.4 °F 73% 30.26 in 10.0 mi WNW 18.4 mph 23.0 mph N/A   Clear
3:55 AM 17.6 °F 2.2 °F 10.4 °F 73% 30.26 in 10.0 mi WNW 17.3 mph - N/A   Clear
4:15 AM 17.6 °F 2.7 °F 10.4 °F 73% 30.27 in 10.0 mi WNW 16.1 mph - N/A   Clear
4:35 AM 17.6 °F 4.3 °F 10.4 °F 73% 30.27 in 10.0 mi WNW 12.7 mph 18.4 mph N/A   Clear
4:55 AM 15.8 °F 2.7 °F 10.4 °F 79% 30.28 in 10.0 mi WNW 11.5 mph - N/A   Clear
5:15 AM 15.8 °F 2.7 °F 10.4 °F 79% 30.28 in 10.0 mi WNW 11.5 mph - N/A   Clear
5:35 AM 15.8 °F 4.2 °F 10.4 °F 79% 30.29 in 10.0 mi West 9.2 mph - N/A   Clear
5:55 AM 14.0 °F 2.9 °F 10.4 °F 86% 30.30 in 10.0 mi West 8.1 mph - N/A   Clear
6:15 AM 14.0 °F 0.5 °F 12.2 °F 93% 30.30 in 10.0 mi WNW 11.5 mph - N/A   Clear
6:35 AM 15.8 °F 4.2 °F 10.4 °F 79% 30.30 in 10.0 mi WNW 9.2 mph - N/A   Clear
6:55 AM 15.8 °F 2.7 °F 10.4 °F 79% 30.30 in 10.0 mi WNW 11.5 mph - N/A   Clear
7:15 AM 14.0 °F 0.5 °F 10.4 °F 86% 30.30 in 10.0 mi WNW 11.5 mph - N/A   Clear
7:35 AM 15.8 °F 3.4 °F 10.4 °F 79% 30.30 in 10.0 mi WNW 10.4 mph - N/A   Clear
7:55 AM 15.8 °F 3.4 °F 12.2 °F 86% 30.30 in 10.0 mi WNW 10.4 mph - N/A   Clear
8:15 AM 17.6 °F 5.7 °F 12.2 °F 79% 30.31 in 10.0 mi WNW 10.4 mph - N/A   Clear
8:55 AM 19.4 °F 5.0 °F 12.2 °F 74% 30.32 in 10.0 mi WNW 16.1 mph - N/A   Clear
9:15 AM 21.2 °F 9.5 °F 12.2 °F 68% 30.32 in 10.0 mi WNW 11.5 mph - N/A   Clear
9:35 AM 21.2 °F 9.5 °F 12.2 °F 68% 30.32 in 10.0 mi NW 11.5 mph - N/A   Clear
9:55 AM 23.0 °F 11.1 °F 12.2 °F 63% 30.32 in 10.0 mi NW 12.7 mph - N/A   Clear
10:15 AM 24.8 °F 13.4 °F 10.4 °F 54% 30.32 in 10.0 mi NW 12.7 mph - N/A   Clear
10:35 AM 24.8 °F 12.9 °F 12.2 °F 59% 30.31 in 10.0 mi NW 13.8 mph - N/A   Clear
10:55 AM 26.6 °F 15.7 °F 12.2 °F 55% 30.31 in 10.0 mi NNW 12.7 mph 17.3 mph N/A   Clear
11:15 AM 26.6 °F 16.8 °F 12.2 °F 55% 30.32 in 10.0 mi NW 10.4 mph - N/A   Clear
11:35 AM 26.6 °F 16.8 °F 12.2 °F 55% 30.31 in 10.0 mi NW 10.4 mph - N/A   Clear
11:55 AM 26.6 °F 18.2 °F 10.4 °F 51% 30.31 in 10.0 mi NW 8.1 mph - N/A   Clear
12:15 PM 28.4 °F 21.2 °F 12.2 °F 51% 30.31 in 10.0 mi NW 6.9 mph - N/A   Clear
12:35 PM 28.4 °F 21.2 °F 12.2 °F 51% 30.30 in 10.0 mi North 6.9 mph - N/A   Clear
1:15 PM 30.2 °F 22.6 °F 10.4 °F 44% 30.30 in 10.0 mi North 8.1 mph - N/A   Clear
1:55 PM 30.2 °F 26.7 °F 12.2 °F 47% 30.27 in 10.0 mi North 3.5 mph - N/A   Clear
2:15 PM 32.0 °F 28.7 °F 12.2 °F 44% 30.27 in 10.0 mi SSW 3.5 mph - N/A   Clear
2:35 PM 32.0 °F 27.5 °F 12.2 °F 44% 30.26 in 10.0 mi East 4.6 mph - N/A   Clear
2:55 PM 32.0 °F 25.6 °F 12.2 °F 44% 30.25 in 10.0 mi East 6.9 mph - N/A   Clear
3:15 PM 33.8 °F 30.8 °F 12.2 °F 41% 30.24 in 10.0 mi SSE 3.5 mph - N/A   Clear
3:35 PM 33.8 °F - 14.0 °F 44% 30.24 in 10.0 mi Calm Calm - N/A   Clear
4:15 PM 33.8 °F 29.6 °F 14.0 °F 44% 30.22 in 10.0 mi ENE 4.6 mph - N/A   Clear
4:55 PM 33.8 °F 27.7 °F 14.0 °F 44% 30.21 in 10.0 mi ESE 6.9 mph - N/A   Clear
5:15 PM 33.8 °F 29.6 °F 12.2 °F 41% 30.20 in 10.0 mi ESE 4.6 mph - N/A   Clear
5:55 PM 32.0 °F 24.8 °F 15.8 °F 51% 30.20 in 10.0 mi East 8.1 mph - N/A   Clear
6:35 PM 30.2 °F 21.9 °F 15.8 °F 55% 30.18 in 10.0 mi East 9.2 mph - N/A   Clear
6:55 PM 30.2 °F 22.6 °F 15.8 °F 55% 30.18 in 10.0 mi East 8.1 mph - N/A   Clear
7:15 PM 28.4 °F 19.7 °F 17.6 °F 64% 30.18 in 10.0 mi East 9.2 mph - N/A   Clear
7:35 PM 28.4 °F 21.2 °F 17.6 °F 64% 30.17 in 10.0 mi East 6.9 mph - N/A   Clear
7:55 PM 28.4 °F 20.4 °F 17.6 °F 64% 30.17 in 10.0 mi East 8.1 mph - N/A   Clear
8:15 PM 28.4 °F 21.2 °F 17.6 °F 64% 30.16 in 10.0 mi East 6.9 mph - N/A   Clear
8:55 PM 28.4 °F 20.4 °F 17.6 °F 64% 30.16 in 10.0 mi ESE 8.1 mph - N/A   Scattered Clouds
9:35 PM 28.4 °F 21.2 °F 17.6 °F 64% 30.15 in 10.0 mi ESE 6.9 mph - N/A   Mostly Cloudy
9:55 PM 30.2 °F 22.6 °F 17.6 °F 60% 30.14 in 10.0 mi East 8.1 mph - N/A   Overcast
10:15 PM 28.4 °F 22.2 °F 17.6 °F 64% 30.14 in 10.0 mi East 5.8 mph - N/A   Overcast
10:35 PM 30.2 °F 23.4 °F 17.6 °F 60% 30.14 in 10.0 mi ESE 6.9 mph - N/A   Overcast
10:55 PM 30.2 °F 23.4 °F 17.6 °F 60% 30.13 in 10.0 mi East 6.9 mph - N/A   Overcast
11:15 PM 28.4 °F 21.2 °F 17.6 °F 64% 30.12 in 10.0 mi East 6.9 mph - N/A   Overcast
11:55 PM 30.2 °F 25.4 °F 17.6 °F 60% 30.11 in 10.0 mi East 4.6 mph - N/A   Overcast